sensor_id;sensor_type;location;lat;lon;timestamp;pressure;altitude;pressure_sealevel;temperature;humidity
27958;BME280;15295;42.658;23.374;2023-05-02T00:00:09;94896.63;;;17.52;45.00
27958;BME280;15295;42.658;23.374;2023-05-02T00:02:44;94908.88;;;17.67;44.69
27958;BME280;15295;42.658;23.374;2023-05-02T00:05:11;94941.78;;;17.78;44.80
27958;BME280;15295;42.658;23.374;2023-05-02T00:07:38;94902.06;;;17.56;44.82
27958;BME280;15295;42.658;23.374;2023-05-02T00:10:10;94900.41;;;17.58;44.70
27958;BME280;15295;42.658;23.374;2023-05-02T00:12:37;94935.56;;;17.74;44.66
27958;BME280;15295;42.658;23.374;2023-05-02T00:15:05;94934.59;;;17.81;44.77
27958;BME280;15295;42.658;23.374;2023-05-02T00:17:34;94909.16;;;17.57;44.76
27958;BME280;15295;42.658;23.374;2023-05-02T00:20:01;94907.94;;;17.58;44.79
27958;BME280;15295;42.658;23.374;2023-05-02T00:22:36;94897.06;;;17.51;44.68
27958;BME280;15295;42.658;23.374;2023-05-02T00:25:04;94943.41;;;17.76;44.71
27958;BME280;15295;42.658;23.374;2023-05-02T00:27:30;94891.19;;;17.33;45.25
27958;BME280;15295;42.658;23.374;2023-05-02T00:32:26;94906.75;;;17.11;45.90
27958;BME280;15295;42.658;23.374;2023-05-02T00:34:55;94936.06;;;17.21;46.01
27958;BME280;15295;42.658;23.374;2023-05-02T00:37:26;94936.75;;;17.25;46.00
27958;BME280;15295;42.658;23.374;2023-05-02T00:39:58;94946.69;;;17.22;46.48
27958;BME280;15295;42.658;23.374;2023-05-02T00:42:32;94927.06;;;17.01;46.58
27958;BME280;15295;42.658;23.374;2023-05-02T00:52:50;94969.22;;;17.21;46.84
27958;BME280;15295;42.658;23.374;2023-05-02T00:55:36;94945.03;;;17.09;46.87
27958;BME280;15295;42.658;23.374;2023-05-02T00:58:11;94919.97;;;16.83;47.09
27958;BME280;15295;42.658;23.374;2023-05-02T01:01:22;94959.00;;;17.02;47.57
27958;BME280;15295;42.658;23.374;2023-05-02T01:15:01;94964.72;;;17.11;47.36
27958;BME280;15295;42.658;23.374;2023-05-02T01:17:40;94959.56;;;17.13;47.25
27958;BME280;15295;42.658;23.374;2023-05-02T01:20:15;94949.09;;;17.04;47.12
27958;BME280;15295;42.658;23.374;2023-05-02T01:22:43;94958.56;;;17.03;47.44
27958;BME280;15295;42.658;23.374;2023-05-02T01:25:48;94945.00;;;16.92;47.88
27958;BME280;15295;42.658;23.374;2023-05-02T01:31:40;94929.13;;;16.80;48.02
27958;BME280;15295;42.658;23.374;2023-05-02T01:34:10;94945.50;;;16.87;47.71
27958;BME280;15295;42.658;23.374;2023-05-02T01:36:54;94947.09;;;16.88;47.88
27958;BME280;15295;42.658;23.374;2023-05-02T01:39:27;94894.84;;;16.62;47.78
27958;BME280;15295;42.658;23.374;2023-05-02T01:41:58;94937.75;;;16.82;47.97
27958;BME280;15295;42.658;23.374;2023-05-02T01:44:28;94966.41;;;17.05;48.01
27958;BME280;15295;42.658;23.374;2023-05-02T01:46:56;94927.75;;;16.88;47.71
27958;BME280;15295;42.658;23.374;2023-05-02T01:49:41;94936.22;;;16.98;47.79
27958;BME280;15295;42.658;23.374;2023-05-02T01:52:11;94956.75;;;16.96;47.94
27958;BME280;15295;42.658;23.374;2023-05-02T01:54:38;94960.38;;;16.93;48.13
27958;BME280;15295;42.658;23.374;2023-05-02T01:57:06;94934.56;;;16.84;47.97
27958;BME280;15295;42.658;23.374;2023-05-02T01:59:34;94975.94;;;17.04;47.97
27958;BME280;15295;42.658;23.374;2023-05-02T02:02:18;94939.03;;;16.78;48.06
27958;BME280;15295;42.658;23.374;2023-05-02T02:04:59;94938.47;;;16.86;48.35
27958;BME280;15295;42.658;23.374;2023-05-02T02:07:27;94917.19;;;16.67;48.52
27958;BME280;15295;42.658;23.374;2023-05-02T02:09:54;94954.66;;;16.84;48.49
27958;BME280;15295;42.658;23.374;2023-05-02T02:12:26;94923.91;;;16.66;48.77
27958;BME280;15295;42.658;23.374;2023-05-02T02:15:12;94951.63;;;16.79;48.79
27958;BME280;15295;42.658;23.374;2023-05-02T02:18:04;94918.81;;;16.45;48.92
27958;BME280;15295;42.658;23.374;2023-05-02T02:20:33;94946.00;;;16.66;49.10
27958;BME280;15295;42.658;23.374;2023-05-02T02:23:04;94952.16;;;16.74;49.02
27958;BME280;15295;42.658;23.374;2023-05-02T02:25:31;94956.03;;;16.76;48.52
27958;BME280;15295;42.658;23.374;2023-05-02T02:27:58;94911.03;;;16.40;49.00
27958;BME280;15295;42.658;23.374;2023-05-02T02:30:27;94952.88;;;16.58;49.13
27958;BME280;15295;42.658;23.374;2023-05-02T02:32:54;94943.22;;;16.47;49.55
27958;BME280;15295;42.658;23.374;2023-05-02T02:35:21;94920.97;;;16.18;49.85
27958;BME280;15295;42.658;23.374;2023-05-02T02:41:26;94955.25;;;16.37;49.76
27958;BME280;15295;42.658;23.374;2023-05-02T02:46:49;94928.53;;;16.14;49.79
27958;BME280;15295;42.658;23.374;2023-05-02T02:49:43;94950.31;;;16.48;49.09
27958;BME280;15295;42.658;23.374;2023-05-02T02:55:23;94949.88;;;16.30;49.61
27958;BME280;15295;42.658;23.374;2023-05-02T02:58:01;94939.25;;;16.08;49.63
27958;BME280;15295;42.658;23.374;2023-05-02T03:00:31;94964.53;;;16.27;49.74
27958;BME280;15295;42.658;23.374;2023-05-02T03:03:03;94950.09;;;16.19;49.82
27958;BME280;15295;42.658;23.374;2023-05-02T03:05:36;94963.25;;;16.11;50.08
27958;BME280;15295;42.658;23.374;2023-05-02T03:08:08;94946.94;;;15.78;50.65
27958;BME280;15295;42.658;23.374;2023-05-02T03:10:46;94980.06;;;16.17;50.31
27958;BME280;15295;42.658;23.374;2023-05-02T03:13:37;94947.81;;;15.94;50.47
27958;BME280;15295;42.658;23.374;2023-05-02T03:16:40;94985.50;;;16.01;50.82
27958;BME280;15295;42.658;23.374;2023-05-02T03:19:11;94979.78;;;16.11;50.40
27958;BME280;15295;42.658;23.374;2023-05-02T03:21:42;94981.63;;;16.18;50.25
27958;BME280;15295;42.658;23.374;2023-05-02T03:24:10;94987.97;;;16.15;50.07
27958;BME280;15295;42.658;23.374;2023-05-02T03:26:46;94996.47;;;16.24;50.32
27958;BME280;15295;42.658;23.374;2023-05-02T03:29:16;94983.22;;;15.96;50.71
27958;BME280;15295;42.658;23.374;2023-05-02T03:31:55;94957.38;;;15.67;50.74
27958;BME280;15295;42.658;23.374;2023-05-02T03:34:26;94975.81;;;15.70;51.11
27958;BME280;15295;42.658;23.374;2023-05-02T03:36:53;94964.91;;;15.86;50.59
27958;BME280;15295;42.658;23.374;2023-05-02T03:39:26;94968.13;;;15.81;50.87
27958;BME280;15295;42.658;23.374;2023-05-02T03:41:56;94976.03;;;16.02;50.53
27958;BME280;15295;42.658;23.374;2023-05-02T03:44:24;94956.16;;;15.91;50.42
27958;BME280;15295;42.658;23.374;2023-05-02T03:46:49;94998.25;;;15.91;50.74
27958;BME280;15295;42.658;23.374;2023-05-02T03:49:21;94989.94;;;15.72;51.03
27958;BME280;15295;42.658;23.374;2023-05-02T03:51:46;94997.00;;;15.96;51.03
27958;BME280;15295;42.658;23.374;2023-05-02T03:54:18;94968.50;;;15.60;51.36
27958;BME280;15295;42.658;23.374;2023-05-02T03:56:59;94984.75;;;15.77;51.20
27958;BME280;15295;42.658;23.374;2023-05-02T04:02:01;94981.88;;;16.04;50.67
27958;BME280;15295;42.658;23.374;2023-05-02T04:04:26;94992.31;;;16.16;50.17
27958;BME280;15295;42.658;23.374;2023-05-02T04:06:53;94976.94;;;16.15;49.99
27958;BME280;15295;42.658;23.374;2023-05-02T04:13:02;95000.88;;;16.41;49.87
27958;BME280;15295;42.658;23.374;2023-05-02T04:15:28;94998.13;;;16.41;49.64
27958;BME280;15295;42.658;23.374;2023-05-02T04:17:53;94996.19;;;16.61;49.54
27958;BME280;15295;42.658;23.374;2023-05-02T04:20:21;94983.72;;;16.53;48.82
27958;BME280;15295;42.658;23.374;2023-05-02T04:22:46;95001.88;;;16.70;48.63
27958;BME280;15295;42.658;23.374;2023-05-02T04:25:14;94980.91;;;16.57;48.83
27958;BME280;15295;42.658;23.374;2023-05-02T04:27:39;94991.53;;;16.74;48.83
27958;BME280;15295;42.658;23.374;2023-05-02T04:30:34;94997.69;;;16.82;48.27
27958;BME280;15295;42.658;23.374;2023-05-02T04:33:05;94976.34;;;16.66;48.25
27958;BME280;15295;42.658;23.374;2023-05-02T04:35:34;95006.13;;;16.75;48.17
27958;BME280;15295;42.658;23.374;2023-05-02T04:38:04;95002.38;;;16.85;48.53
27958;BME280;15295;42.658;23.374;2023-05-02T04:40:34;94968.75;;;16.70;47.60
27958;BME280;15295;42.658;23.374;2023-05-02T04:43:09;95019.00;;;16.81;47.25
27958;BME280;15295;42.658;23.374;2023-05-02T04:45:36;95008.66;;;16.85;47.47
27958;BME280;15295;42.658;23.374;2023-05-02T04:48:02;95016.59;;;16.83;47.21
27958;BME280;15295;42.658;23.374;2023-05-02T04:50:29;94991.41;;;16.42;48.10
27958;BME280;15295;42.658;23.374;2023-05-02T04:52:56;95012.31;;;16.63;48.09
27958;BME280;15295;42.658;23.374;2023-05-02T04:55:25;95024.81;;;16.67;47.75
27958;BME280;15295;42.658;23.374;2023-05-02T04:57:58;95022.56;;;16.62;47.72
27958;BME280;15295;42.658;23.374;2023-05-02T05:00:25;95008.88;;;16.55;47.95
27958;BME280;15295;42.658;23.374;2023-05-02T05:02:51;95025.44;;;16.75;47.29
27958;BME280;15295;42.658;23.374;2023-05-02T05:05:17;95026.94;;;16.79;47.59
27958;BME280;15295;42.658;23.374;2023-05-02T05:07:42;95012.09;;;16.54;47.51
27958;BME280;15295;42.658;23.374;2023-05-02T05:10:08;95017.50;;;16.57;46.99
27958;BME280;15295;42.658;23.374;2023-05-02T05:12:35;95024.81;;;16.67;46.41
27958;BME280;15295;42.658;23.374;2023-05-02T05:15:00;94976.03;;;16.21;46.55
27958;BME280;15295;42.658;23.374;2023-05-02T05:17:26;95025.88;;;16.73;46.08
27958;BME280;15295;42.658;23.374;2023-05-02T05:19:51;95021.19;;;16.70;45.79
27958;BME280;15295;42.658;23.374;2023-05-02T05:22:17;95021.00;;;16.61;45.91
27958;BME280;15295;42.658;23.374;2023-05-02T05:24:50;95025.66;;;16.64;46.22
27958;BME280;15295;42.658;23.374;2023-05-02T05:27:17;95028.63;;;16.73;46.15
27958;BME280;15295;42.658;23.374;2023-05-02T06:05:32;94988.81;;;17.26;43.37
27958;BME280;15295;42.658;23.374;2023-05-02T06:08:09;95032.28;;;17.58;43.41
27958;BME280;15295;42.658;23.374;2023-05-02T06:15:27;95041.72;;;17.60;42.90
27958;BME280;15295;42.658;23.374;2023-05-02T06:17:52;95050.28;;;17.82;42.95
27958;BME280;15295;42.658;23.374;2023-05-02T06:20:18;95044.56;;;17.73;42.74
27958;BME280;15295;42.658;23.374;2023-05-02T06:22:55;95040.59;;;17.74;42.78
27958;BME280;15295;42.658;23.374;2023-05-02T06:27:55;95033.84;;;17.59;42.73
27958;BME280;15295;42.658;23.374;2023-05-02T06:30:20;95036.03;;;17.67;42.73
27958;BME280;15295;42.658;23.374;2023-05-02T06:33:22;95040.19;;;17.92;42.26
27958;BME280;15295;42.658;23.374;2023-05-02T06:35:51;95031.34;;;17.97;42.09
27958;BME280;15295;42.658;23.374;2023-05-02T06:38:17;95046.19;;;18.03;41.77
27958;BME280;15295;42.658;23.374;2023-05-02T06:40:43;95029.34;;;18.42;41.20
27958;BME280;15295;42.658;23.374;2023-05-02T06:43:33;95040.34;;;18.45;41.00
27958;BME280;15295;42.658;23.374;2023-05-02T06:46:21;94977.41;;;18.50;40.50
27958;BME280;15295;42.658;23.374;2023-05-02T06:54:20;94962.38;;;18.63;39.08
27958;BME280;15295;42.658;23.374;2023-05-02T06:57:17;95029.56;;;18.92;39.01
27958;BME280;15295;42.658;23.374;2023-05-02T07:05:32;95028.84;;;19.55;37.76
27958;BME280;15295;42.658;23.374;2023-05-02T07:10:59;95031.75;;;19.39;37.24
27958;BME280;15295;42.658;23.374;2023-05-02T07:13:36;95023.66;;;19.57;36.89
27958;BME280;15295;42.658;23.374;2023-05-02T07:16:19;94978.75;;;19.49;36.29
27958;BME280;15295;42.658;23.374;2023-05-02T07:19:25;95016.69;;;20.24;35.62
27958;BME280;15295;42.658;23.374;2023-05-02T07:22:33;95037.78;;;20.56;35.55
27958;BME280;15295;42.658;23.374;2023-05-02T07:31:52;95037.72;;;20.68;34.35
27958;BME280;15295;42.658;23.374;2023-05-02T07:34:53;95038.91;;;20.58;34.66
27958;BME280;15295;42.658;23.374;2023-05-02T07:37:34;95033.75;;;20.35;35.38
27958;BME280;15295;42.658;23.374;2023-05-02T07:42:42;95053.63;;;20.68;34.45
27958;BME280;15295;42.658;23.374;2023-05-02T07:57:01;95038.44;;;21.56;32.86
27958;BME280;15295;42.658;23.374;2023-05-02T07:59:42;95024.72;;;21.30;32.88
27958;BME280;15295;42.658;23.374;2023-05-02T15:51:44;94810.00;;;24.22;22.63
27958;BME280;15295;42.658;23.374;2023-05-02T15:54:19;94784.06;;;24.07;22.74
27958;BME280;15295;42.658;23.374;2023-05-02T15:56:45;94803.41;;;24.11;23.07
27958;BME280;15295;42.658;23.374;2023-05-02T15:59:21;94789.66;;;24.07;22.92
27958;BME280;15295;42.658;23.374;2023-05-02T16:01:46;94808.47;;;23.98;23.38
27958;BME280;15295;42.658;23.374;2023-05-02T16:04:11;94809.53;;;24.00;23.45
27958;BME280;15295;42.658;23.374;2023-05-02T16:06:37;94808.59;;;24.03;23.31
27958;BME280;15295;42.658;23.374;2023-05-02T16:09:15;94805.44;;;24.10;23.70
27958;BME280;15295;42.658;23.374;2023-05-02T16:11:41;94819.53;;;23.92;23.83
27958;BME280;15295;42.658;23.374;2023-05-02T16:14:06;94810.31;;;24.01;23.76
27958;BME280;15295;42.658;23.374;2023-05-02T16:16:39;94809.50;;;24.09;23.64
27958;BME280;15295;42.658;23.374;2023-05-02T16:19:12;94797.44;;;24.03;24.33
27958;BME280;15295;42.658;23.374;2023-05-02T16:24:13;94812.97;;;24.19;24.33
27958;BME280;15295;42.658;23.374;2023-05-02T16:26:38;94813.66;;;24.14;23.40
27958;BME280;15295;42.658;23.374;2023-05-02T16:29:05;94815.47;;;23.93;23.43
27958;BME280;15295;42.658;23.374;2023-05-02T16:32:04;94827.84;;;24.01;23.63
27958;BME280;15295;42.658;23.374;2023-05-02T16:34:39;94812.63;;;23.64;23.87
27958;BME280;15295;42.658;23.374;2023-05-02T16:37:14;94800.28;;;23.56;24.19
27958;BME280;15295;42.658;23.374;2023-05-02T16:39:48;94820.63;;;23.71;23.85
27958;BME280;15295;42.658;23.374;2023-05-02T16:42:24;94845.06;;;23.76;23.75
27958;BME280;15295;42.658;23.374;2023-05-02T17:00:33;94816.31;;;23.14;24.14
27958;BME280;15295;42.658;23.374;2023-05-02T17:03:57;94848.66;;;23.20;24.43
27958;BME280;15295;42.658;23.374;2023-05-02T18:35:47;94891.03;;;21.37;28.17
27958;BME280;15295;42.658;23.374;2023-05-02T18:38:20;94895.59;;;21.22;28.54
27958;BME280;15295;42.658;23.374;2023-05-02T18:43:31;94826.75;;;20.87;28.19
27958;BME280;15295;42.658;23.374;2023-05-02T18:45:56;94869.22;;;20.96;27.98
27958;BME280;15295;42.658;23.374;2023-05-02T18:48:23;94891.38;;;21.09;28.13
27958;BME280;15295;42.658;23.374;2023-05-02T18:50:48;94909.09;;;20.71;29.07
27958;BME280;15295;42.658;23.374;2023-05-02T18:53:14;94882.47;;;20.92;28.44
27958;BME280;15295;42.658;23.374;2023-05-02T18:55:39;94869.94;;;20.88;28.34
27958;BME280;15295;42.658;23.374;2023-05-02T18:58:05;94888.66;;;20.96;28.39
27958;BME280;15295;42.658;23.374;2023-05-02T19:00:32;94891.38;;;20.78;27.94
27958;BME280;15295;42.658;23.374;2023-05-02T19:21:50;94875.97;;;20.34;28.57
27958;BME280;15295;42.658;23.374;2023-05-02T19:24:17;94880.31;;;20.56;28.42
27958;BME280;15295;42.658;23.374;2023-05-02T19:26:44;94879.63;;;20.74;28.06
27958;BME280;15295;42.658;23.374;2023-05-02T19:29:12;94880.44;;;20.53;28.14
27958;BME280;15295;42.658;23.374;2023-05-02T22:05:47;94920.63;;;18.58;32.88
27958;BME280;15295;42.658;23.374;2023-05-02T22:10:59;94917.72;;;18.48;32.78
27958;BME280;15295;42.658;23.374;2023-05-02T22:14:04;94929.94;;;18.64;33.01
27958;BME280;15295;42.658;23.374;2023-05-02T22:25:32;94968.66;;;19.05;32.35
27958;BME280;15295;42.658;23.374;2023-05-02T23:29:43;94913.09;;;18.01;30.46
27958;BME280;15295;42.658;23.374;2023-05-02T23:32:29;94903.56;;;17.89;30.10
27958;BME280;15295;42.658;23.374;2023-05-02T23:37:49;94895.44;;;17.82;29.93
27958;BME280;15295;42.658;23.374;2023-05-02T23:45:57;94932.34;;;17.92;29.75
27958;BME280;15295;42.658;23.374;2023-05-02T23:49:06;94942.56;;;18.07;29.87
